createdAt,value
2018-12-12T00:02:18.629Z,101870.84
2018-12-12T00:04:44.627Z,101877.44
2018-12-12T00:07:10.696Z,101876.02
2018-12-12T00:09:36.729Z,101871.91
2018-12-12T00:12:02.710Z,101874.55
2018-12-12T00:14:28.786Z,101879.00
2018-12-12T00:16:54.747Z,101873.82
2018-12-12T00:19:20.712Z,101882.12
2018-12-12T00:21:46.668Z,101877.30
2018-12-12T00:24:12.623Z,101875.62
2018-12-12T00:26:38.734Z,101881.73
2018-12-12T00:29:04.675Z,101883.64
2018-12-12T00:31:30.653Z,101885.94
2018-12-12T00:33:56.604Z,101887.61
2018-12-12T00:36:22.588Z,101886.77
2018-12-12T00:38:48.666Z,101877.53
2018-12-12T00:41:14.638Z,101866.98
2018-12-12T00:43:40.636Z,101866.50
2018-12-12T00:46:06.640Z,101872.50
2018-12-12T00:48:32.701Z,101864.23
2018-12-12T00:50:58.730Z,101863.27
2018-12-12T00:53:24.801Z,101856.43
2018-12-12T00:55:50.771Z,101851.74
2018-12-12T00:58:16.743Z,101853.92
2018-12-12T01:00:42.710Z,101852.12
2018-12-12T01:03:08.658Z,101861.84
2018-12-12T01:05:34.686Z,101865.91
2018-12-12T01:08:00.642Z,101869.96
2018-12-12T01:10:26.597Z,101864.69
2018-12-12T01:12:52.558Z,101867.33
2018-12-12T01:15:18.630Z,101870.91
2018-12-12T01:17:44.593Z,101879.65
2018-12-12T01:20:10.534Z,101873.54
2018-12-12T01:22:36.500Z,101874.37
2018-12-12T01:25:02.456Z,101880.89
2018-12-12T01:27:28.422Z,101879.58
2018-12-12T01:29:54.367Z,101884.09
2018-12-12T01:32:20.326Z,101886.25
2018-12-12T01:34:46.273Z,101881.73
2018-12-12T01:37:12.229Z,101881.84
2018-12-12T01:39:38.184Z,101882.42
2018-12-12T01:42:04.161Z,101878.47
2018-12-12T01:44:30.137Z,101878.57
2018-12-12T01:46:56.113Z,101877.50
2018-12-12T01:49:22.081Z,101879.41
2018-12-12T01:51:48.031Z,101883.02
2018-12-12T01:54:13.998Z,101890.06
2018-12-12T01:56:39.965Z,101888.73
2018-12-12T01:59:05.996Z,101897.14
2018-12-12T02:01:31.950Z,101893.66
2018-12-12T02:03:57.997Z,101899.77
2018-12-12T02:06:23.949Z,101897.97
2018-12-12T02:08:49.902Z,101895.72
2018-12-12T02:11:15.876Z,101907.34
2018-12-12T02:13:41.847Z,101909.08
2018-12-12T02:16:07.891Z,101904.26
2018-12-12T02:18:33.830Z,101906.52
2018-12-12T02:20:59.784Z,101906.44
2018-12-12T02:23:25.744Z,101906.03
2018-12-12T02:25:51.901Z,101903.88
2018-12-12T02:28:17.855Z,101907.83
2018-12-12T02:30:43.810Z,101904.95
2018-12-12T02:33:09.758Z,101904.84
2018-12-12T02:35:35.733Z,101903.98
2018-12-12T02:38:01.686Z,101905.78
2018-12-12T02:40:27.638Z,101900.99
2018-12-12T02:42:53.595Z,101892.59
2018-12-12T02:45:19.570Z,101894.64
2018-12-12T02:47:45.542Z,101898.05
2018-12-12T02:50:11.522Z,101894.92
2018-12-12T02:52:37.494Z,101899.23
2018-12-12T02:55:03.428Z,101895.17
2018-12-12T02:57:29.401Z,101893.02
2018-12-12T02:59:55.443Z,101890.86
2018-12-12T03:02:21.484Z,101898.77
2018-12-12T03:04:47.591Z,101905.95
2018-12-12T03:07:13.550Z,101913.39
2018-12-12T03:09:39.550Z,101911.72
2018-12-12T03:12:05.625Z,101908.67
2018-12-12T03:14:31.587Z,101914.81
2018-12-12T03:16:57.548Z,101914.70
2018-12-12T03:19:23.499Z,101919.02
2018-12-12T03:21:49.540Z,101917.83
2018-12-12T03:24:15.497Z,101915.55
2018-12-12T03:26:41.550Z,101921.66
2018-12-12T03:29:07.600Z,101913.28
2018-12-12T03:31:33.559Z,101915.55
2018-12-12T03:33:59.518Z,101920.72
2018-12-12T03:36:26.277Z,101920.72
2018-12-12T03:38:52.237Z,101914.95
2018-12-12T03:41:18.205Z,101915.78
2018-12-12T03:43:44.212Z,101913.98
2018-12-12T03:46:10.165Z,101901.28
2018-12-12T03:48:36.115Z,101907.77
2018-12-12T03:51:02.065Z,101899.48
2018-12-12T03:53:28.118Z,101900.69
2018-12-12T03:55:54.071Z,101905.73
2018-12-12T03:58:20.021Z,101910.66
2018-12-12T04:00:45.994Z,101911.14
2018-12-12T04:03:11.947Z,101910.17
2018-12-12T04:05:37.907Z,101908.85
2018-12-12T04:08:03.990Z,101913.30
2018-12-12T04:10:29.959Z,101918.09
2018-12-12T04:12:55.957Z,101919.51
2018-12-12T04:15:21.912Z,101922.88
2018-12-12T04:17:47.948Z,101916.41
2018-12-12T04:20:13.906Z,101919.41
2018-12-12T04:22:39.955Z,101911.48
2018-12-12T04:25:05.966Z,101903.95
2018-12-12T04:27:31.956Z,101910.17
2018-12-12T04:29:57.914Z,101911.00
2018-12-12T04:32:23.887Z,101905.38
2018-12-12T04:34:49.855Z,101907.91
2018-12-12T04:37:15.796Z,101906.45
2018-12-12T04:39:41.782Z,101906.94
2018-12-12T04:42:07.786Z,101906.59
2018-12-12T04:44:33.841Z,101905.28
2018-12-12T04:46:59.891Z,101907.91
2018-12-12T04:49:25.878Z,101905.14
2018-12-12T04:51:51.950Z,101903.47
2018-12-12T04:54:17.915Z,101902.98
2018-12-12T04:56:43.902Z,101900.00
2018-12-12T04:59:09.878Z,101895.91
2018-12-12T05:01:35.837Z,101896.05
2018-12-12T05:04:01.805Z,101897.22
2018-12-12T05:06:27.786Z,101910.55
2018-12-12T05:08:53.774Z,101910.55
2018-12-12T05:11:19.732Z,101914.86
2018-12-12T05:13:45.723Z,101907.91
2018-12-12T05:16:11.778Z,101907.78
2018-12-12T05:18:37.762Z,101907.19
2018-12-12T05:21:03.706Z,101912.81
2018-12-12T05:23:29.664Z,101912.95
2018-12-12T05:25:55.629Z,101913.79
2018-12-12T05:28:21.556Z,101911.98
2018-12-12T05:30:47.504Z,101915.11
2018-12-12T05:33:13.471Z,101913.30
2018-12-12T05:35:39.426Z,101914.63
2018-12-12T05:38:05.388Z,101909.34
2018-12-12T05:40:31.374Z,101914.63
2018-12-12T05:42:57.324Z,101919.90
2018-12-12T05:45:23.313Z,101926.50
2018-12-12T05:47:49.261Z,101919.16
2018-12-12T05:50:15.270Z,101923.61
2018-12-12T05:52:41.242Z,101915.70
2018-12-12T05:55:07.209Z,101914.75
2018-12-12T05:57:33.148Z,101920.87
2018-12-12T05:59:59.239Z,101921.70
2018-12-12T06:02:25.281Z,101918.83
2018-12-12T06:04:51.253Z,101926.88
2018-12-12T06:07:17.224Z,101925.42
2018-12-12T06:09:43.196Z,101925.91
2018-12-12T06:12:09.218Z,101923.16
2018-12-12T06:14:35.206Z,101934.17
2018-12-12T06:17:01.339Z,101924.94
2018-12-12T06:19:27.361Z,101935.49
2018-12-12T06:21:53.313Z,101934.41
2018-12-12T06:24:19.281Z,101933.92
2018-12-12T06:26:45.242Z,101947.12
2018-12-12T06:29:11.221Z,101944.13
2018-12-12T06:31:37.200Z,101942.46
2018-12-12T06:34:03.511Z,101946.28
2018-12-12T06:36:29.741Z,101944.23
2018-12-12T06:38:56.611Z,101938.02
2018-12-12T06:41:22.649Z,101950.73
2018-12-12T06:43:48.604Z,101950.38
2018-12-12T06:46:14.591Z,101951.21
2018-12-12T06:48:40.554Z,101956.36
2018-12-12T06:51:06.580Z,101952.39
2018-12-12T06:53:32.554Z,101954.09
2018-12-12T06:55:58.527Z,101961.18
2018-12-12T06:58:24.507Z,101960.80
2018-12-12T07:00:50.458Z,101966.56
2018-12-12T07:03:16.421Z,101960.45
2018-12-12T07:05:42.379Z,101963.81
2018-12-12T07:08:08.371Z,101962.59
2018-12-12T07:10:34.335Z,101968.71
2018-12-12T07:13:00.333Z,101961.18
2018-12-12T07:15:26.281Z,101965.14
2018-12-12T07:17:52.253Z,101957.81
2018-12-12T07:20:18.235Z,101966.45
2018-12-12T07:22:44.182Z,101969.55
2018-12-12T07:25:10.160Z,101960.80
2018-12-12T07:27:36.127Z,101959.24
2018-12-12T07:30:02.129Z,101958.66
2018-12-12T07:32:28.078Z,101963.20
2018-12-12T07:34:54.059Z,101962.84
2018-12-12T07:37:20.057Z,101959.73
2018-12-12T07:39:46.045Z,101962.37
2018-12-12T07:42:12.083Z,101970.42
2018-12-12T07:44:38.044Z,101964.17
2018-12-12T07:47:04.029Z,101970.77
2018-12-12T07:49:29.998Z,101975.08
2018-12-12T07:51:55.976Z,101982.64
2018-12-12T07:54:22.070Z,101986.95
2018-12-12T07:56:48.023Z,101987.44
2018-12-12T07:59:13.973Z,101993.45
2018-12-12T08:01:40.013Z,101981.32
2018-12-12T08:04:06.068Z,101986.59
2018-12-12T08:06:32.079Z,101989.23
2018-12-12T08:08:58.193Z,101995.00
2018-12-12T08:11:24.239Z,101992.84
2018-12-12T08:13:50.203Z,101996.42
2018-12-12T08:16:16.178Z,101999.64
2018-12-12T08:18:42.243Z,101999.55
2018-12-12T08:21:08.258Z,102003.50
2018-12-12T08:23:34.213Z,102004.92
2018-12-12T08:26:00.215Z,102004.92
2018-12-12T08:28:26.242Z,102007.36
2018-12-12T08:30:52.217Z,102004.72
2018-12-12T08:33:18.214Z,102004.97
2018-12-12T08:35:44.289Z,102002.78
2018-12-12T08:38:10.351Z,101999.69
2018-12-12T08:40:36.314Z,102007.13
2018-12-12T08:43:02.282Z,102004.48
2018-12-12T08:45:28.280Z,102008.79
2018-12-12T08:47:54.281Z,102014.06
2018-12-12T08:50:20.268Z,102007.47
2018-12-12T08:52:46.339Z,102018.03
2018-12-12T08:55:17.644Z,102014.06
2018-12-12T08:57:40.439Z,102019.73
2018-12-12T09:00:06.418Z,102019.34
2018-12-12T09:02:32.383Z,102011.81
2018-12-12T09:04:58.740Z,102014.94
2018-12-12T09:07:24.705Z,102016.13
2018-12-12T09:09:50.749Z,102016.51
2018-12-12T09:12:16.686Z,102017.34
2018-12-12T09:14:42.661Z,102019.59
2018-12-12T09:17:09.914Z,102026.58
2018-12-12T09:19:36.297Z,102026.93
2018-12-12T09:22:03.709Z,102026.68
2018-12-12T09:24:31.123Z,102026.20
2018-12-12T09:26:57.720Z,102025.74
2018-12-12T09:29:24.256Z,102037.63
2018-12-12T09:31:50.286Z,102033.05
2018-12-12T09:34:16.292Z,102029.57
2018-12-12T09:36:42.387Z,102031.38
2018-12-12T09:39:08.457Z,102031.86
2018-12-12T09:41:34.480Z,102033.66
2018-12-12T09:44:00.507Z,102031.02
2018-12-12T09:46:26.721Z,102026.68
2018-12-12T09:48:52.682Z,102031.95
2018-12-12T09:51:18.717Z,102031.02
2018-12-12T09:53:44.666Z,102034.02
2018-12-12T09:56:11.017Z,102037.88
2018-12-12T09:58:37.191Z,102029.57
2018-12-12T10:01:03.145Z,102031.97
2018-12-12T10:03:31.229Z,102035.48
2018-12-12T10:05:57.046Z,102029.13
2018-12-12T10:08:23.020Z,102024.79
2018-12-12T10:10:48.965Z,102028.75
2018-12-12T10:13:14.953Z,102026.24
2018-12-12T10:15:40.925Z,102030.20
2018-12-12T10:18:07.014Z,102030.66
2018-12-12T10:20:32.980Z,102029.23
2018-12-12T10:22:59.209Z,102020.34
2018-12-12T10:25:25.271Z,102026.11
2018-12-12T10:27:51.284Z,102020.24
2018-12-12T10:30:17.270Z,102019.30
2018-12-12T10:32:43.218Z,102020.14
2018-12-12T10:35:09.179Z,102014.97
2018-12-12T10:37:35.140Z,102012.22
2018-12-12T10:40:01.105Z,102009.00
2018-12-12T10:42:27.159Z,102006.70
2018-12-12T10:44:53.349Z,101998.69
2018-12-12T10:47:19.289Z,102003.34
2018-12-12T10:49:45.246Z,101997.96
2018-12-12T10:52:11.211Z,101996.41
2018-12-12T10:54:37.244Z,101994.62
2018-12-12T10:57:03.183Z,101997.38
2018-12-12T10:59:29.182Z,101986.92
2018-12-12T11:01:55.146Z,101987.41
2018-12-12T11:04:21.174Z,101982.22
2018-12-12T11:06:47.133Z,101981.29
2018-12-12T11:09:13.120Z,101983.92
2018-12-12T11:11:39.077Z,101980.07
2018-12-12T11:14:05.037Z,101977.81
2018-12-12T11:16:30.999Z,101980.31
2018-12-12T11:18:56.946Z,101979.86
2018-12-12T11:21:22.902Z,101971.95
2018-12-12T11:23:48.883Z,101973.27
2018-12-12T11:26:14.873Z,101963.64
2018-12-12T11:28:40.831Z,101963.54
2018-12-12T11:31:06.821Z,101962.22
2018-12-12T11:33:32.771Z,101959.44
2018-12-12T11:35:58.729Z,101952.49
2018-12-12T11:38:24.705Z,101957.29
2018-12-12T11:40:50.667Z,101959.09
2018-12-12T11:43:16.656Z,101961.97
2018-12-12T11:45:42.651Z,101951.17
2018-12-12T11:48:08.626Z,101953.43
2018-12-12T11:50:34.588Z,101945.52
2018-12-12T11:53:00.578Z,101948.98
2018-12-12T11:55:26.565Z,101940.82
2018-12-12T11:57:52.527Z,101940.37
2018-12-12T12:00:18.478Z,101937.24
2018-12-12T12:02:44.497Z,101937.97
2018-12-12T12:05:11.679Z,101931.72
2018-12-12T12:07:38.432Z,101934.71
2018-12-12T12:10:04.444Z,101937.73
2018-12-12T12:12:30.420Z,101935.44
2018-12-12T12:14:56.393Z,101937.00
2018-12-12T12:17:22.355Z,101931.72
2018-12-12T12:22:23.058Z,101933.42
2018-12-12T12:24:49.092Z,101929.08
2018-12-12T12:27:15.272Z,101924.29
2018-12-12T12:29:41.453Z,101922.97
2018-12-12T12:32:07.400Z,101928.84
2018-12-12T12:34:33.371Z,101926.69
2018-12-12T12:36:59.350Z,101921.27
2018-12-12T12:39:25.322Z,101924.87
2018-12-12T12:41:51.318Z,101924.53
2018-12-12T12:44:17.316Z,101918.38
2018-12-12T12:46:43.269Z,101915.88
2018-12-12T12:49:09.226Z,101915.98
2018-12-12T12:51:35.207Z,101911.55
2018-12-12T12:54:01.158Z,101904.11
2018-12-12T12:56:27.117Z,101904.94
2018-12-12T12:58:53.082Z,101901.85
2018-12-12T13:01:19.061Z,101908.17
2018-12-12T13:03:45.014Z,101904.70
2018-12-12T13:06:11.025Z,101902.89
2018-12-12T13:08:37.005Z,101892.34
2018-12-12T13:11:02.946Z,101891.98
2018-12-12T13:13:29.053Z,101885.39
2018-12-12T13:15:55.273Z,101879.52
2018-12-12T13:18:21.251Z,101882.27
2018-12-12T13:20:47.207Z,101885.74
2018-12-12T13:23:13.179Z,101886.61
2018-12-12T13:25:39.125Z,101875.91
2018-12-12T13:28:05.081Z,101876.39
2018-12-12T13:30:31.065Z,101874.70
2018-12-12T13:32:57.084Z,101875.08
2018-12-12T13:35:23.037Z,101877.13
2018-12-12T13:37:49.010Z,101876.64
2018-12-12T13:40:15.200Z,101867.16
2018-12-12T13:42:41.184Z,101864.52
2018-12-12T13:45:07.173Z,101861.05
2018-12-12T13:47:33.126Z,101858.41
2018-12-12T13:49:59.093Z,101852.16
2018-12-12T13:52:25.094Z,101854.91
2018-12-12T13:54:51.062Z,101851.19
2018-12-12T13:57:17.026Z,101853.00
2018-12-12T13:59:43.119Z,101850.73
2018-12-12T14:02:09.115Z,101840.18
2018-12-12T14:04:35.105Z,101849.17
2018-12-12T14:07:01.063Z,101845.91
2018-12-12T14:09:27.063Z,101843.65
2018-12-12T14:11:53.030Z,101846.77
2018-12-12T14:14:19.015Z,101845.80
2018-12-12T14:16:44.982Z,101844.38
2018-12-12T14:19:10.974Z,101833.33
2018-12-12T14:21:36.926Z,101836.81
2018-12-12T14:24:02.984Z,101839.83
2018-12-12T14:26:28.970Z,101846.28
2018-12-12T14:28:54.934Z,101832.74
2018-12-12T14:31:20.928Z,101838.75
2018-12-12T14:33:46.897Z,101836.45
2018-12-12T14:36:12.871Z,101838.61
2018-12-12T14:38:38.784Z,101834.16
2018-12-12T14:41:04.750Z,101827.56
2018-12-12T14:43:30.718Z,101831.17
2018-12-12T14:45:56.758Z,101831.52
2018-12-12T14:48:22.911Z,101837.67
2018-12-12T14:50:48.861Z,101840.42
2018-12-12T14:53:14.824Z,101836.80
2018-12-12T14:55:40.793Z,101838.13
2018-12-12T14:58:06.754Z,101840.90
2018-12-12T15:00:32.790Z,101834.30
2018-12-12T15:02:58.787Z,101838.75
2018-12-12T15:05:24.870Z,101833.47
2018-12-12T15:07:50.971Z,101838.98
2018-12-12T15:10:17.040Z,101833.57
2018-12-12T15:12:43.149Z,101833.95
2018-12-12T15:15:09.202Z,101834.05
2018-12-12T15:17:35.156Z,101832.49
2018-12-12T15:20:01.141Z,101836.23
2018-12-12T15:22:27.205Z,101826.13
2018-12-12T15:24:53.156Z,101836.58
2018-12-12T15:27:19.123Z,101830.70
2018-12-12T15:29:45.087Z,101832.38
2018-12-12T15:32:11.037Z,101832.38
2018-12-12T15:34:42.306Z,101837.06
2018-12-12T15:37:04.994Z,101833.59
2018-12-12T15:39:30.985Z,101840.44
2018-12-12T15:41:56.990Z,101840.05
2018-12-12T15:44:23.060Z,101844.02
2018-12-12T15:46:49.016Z,101840.20
2018-12-12T15:49:15.019Z,101839.81
2018-12-12T15:51:40.971Z,101842.11
2018-12-12T15:54:06.941Z,101843.19
2018-12-12T15:56:32.906Z,101843.64
2018-12-12T15:58:58.870Z,101849.55
2018-12-12T16:01:24.888Z,101851.70
2018-12-12T16:03:50.826Z,101850.38
2018-12-12T16:06:16.810Z,101849.55
2018-12-12T16:08:42.842Z,101850.38
2018-12-12T16:11:08.820Z,101849.06
2018-12-12T16:13:34.794Z,101846.91
2018-12-12T16:16:00.757Z,101849.17
2018-12-12T16:18:26.718Z,101850.14
2018-12-12T16:20:52.706Z,101851.45
2018-12-12T16:23:18.666Z,101851.32
2018-12-12T16:25:44.640Z,101854.34
2018-12-12T16:28:10.625Z,101850.38
2018-12-12T16:30:36.586Z,101849.06
2018-12-12T16:33:02.561Z,101852.53
2018-12-12T16:35:28.557Z,101852.19
2018-12-12T16:37:54.577Z,101851.32
2018-12-12T16:40:20.530Z,101848.81
2018-12-12T16:42:46.514Z,101850.63
2018-12-12T16:45:12.512Z,101852.30
2018-12-12T16:47:38.703Z,101857.47
2018-12-12T16:50:04.667Z,101854.09
2018-12-12T16:52:30.751Z,101854.80
2018-12-12T16:54:56.805Z,101861.98
2018-12-12T16:57:22.826Z,101861.64
2018-12-12T16:59:48.809Z,101861.39
2018-12-12T17:02:14.860Z,101862.85
2018-12-12T17:04:40.864Z,101866.22
2018-12-12T17:07:06.815Z,101868.00
2018-12-12T17:09:32.781Z,101874.24
2018-12-12T17:11:58.741Z,101873.66
2018-12-12T17:14:24.717Z,101875.32
2018-12-12T17:16:50.683Z,101875.70
2018-12-12T17:19:16.720Z,101880.59
2018-12-12T17:21:42.697Z,101877.61
2018-12-12T17:24:08.671Z,101876.16
2018-12-12T17:26:34.649Z,101876.53
2018-12-12T17:29:00.615Z,101879.17
2018-12-12T17:31:26.584Z,101882.16
2018-12-12T17:33:52.531Z,101878.34
2018-12-12T17:36:18.502Z,101884.07
2018-12-12T17:38:44.457Z,101881.09
2018-12-12T17:41:10.447Z,101882.51
2018-12-12T17:43:36.405Z,101878.09
2018-12-12T17:46:03.503Z,101878.80
2018-12-12T17:48:29.484Z,101878.94
2018-12-12T17:50:55.430Z,101874.14
2018-12-12T17:53:21.403Z,101868.48
2018-12-12T17:55:47.378Z,101871.60
2018-12-12T17:58:13.336Z,101867.64
2018-12-12T18:00:39.318Z,101866.22
2018-12-12T18:03:05.270Z,101866.33
2018-12-12T18:05:31.258Z,101870.77
2018-12-12T18:07:57.216Z,101861.98
2018-12-12T18:10:23.176Z,101864.63
2018-12-12T18:12:49.140Z,101863.93
2018-12-12T18:15:15.089Z,101864.28
2018-12-12T18:17:41.164Z,101861.29
2018-12-12T18:20:07.161Z,101855.53
2018-12-12T18:22:33.229Z,101855.77
2018-12-12T18:24:59.238Z,101867.41
2018-12-12T18:27:25.286Z,101861.16
2018-12-12T18:29:51.267Z,101862.12
2018-12-12T18:32:17.214Z,101856.02
2018-12-12T18:34:43.184Z,101859.97
2018-12-12T18:37:09.149Z,101859.24
2018-12-12T18:39:35.149Z,101867.16
2018-12-12T18:42:01.100Z,101862.12
2018-12-12T18:44:27.090Z,101860.81
2018-12-12T18:46:53.104Z,101867.27
2018-12-12T18:49:19.049Z,101867.27
2018-12-12T18:51:46.034Z,101864.14
2018-12-12T18:54:12.084Z,101872.55
2018-12-12T18:56:38.115Z,101863.69
2018-12-12T18:59:04.202Z,101865.70
2018-12-12T19:01:30.173Z,101864.63
2018-12-12T19:03:56.182Z,101864.03
2018-12-12T19:06:22.152Z,101862.83
2018-12-12T19:08:48.292Z,101858.86
2018-12-12T19:11:14.241Z,101855.39
2018-12-12T19:13:40.199Z,101852.05
2018-12-12T19:16:06.175Z,101852.89
2018-12-12T19:18:32.121Z,101852.05
2018-12-12T19:21:00.257Z,101846.88
2018-12-12T19:23:26.200Z,101845.70
2018-12-12T19:25:52.316Z,101844.48
2018-12-12T19:28:18.272Z,101846.05
2018-12-12T19:30:44.314Z,101838.96
2018-12-12T19:33:10.328Z,101844.63
2018-12-12T19:35:36.503Z,101836.11
2018-12-12T19:38:02.480Z,101846.53
2018-12-12T19:40:28.489Z,101846.18
2018-12-12T19:42:54.475Z,101841.39
2018-12-12T19:45:20.770Z,101838.86
2018-12-12T19:47:46.752Z,101847.02
2018-12-12T19:50:12.709Z,101841.49
2018-12-12T19:52:38.700Z,101836.70
2018-12-12T19:55:04.659Z,101839.94
2018-12-12T19:57:30.618Z,101847.02
2018-12-12T19:59:56.643Z,101838.38
2018-12-12T20:02:22.600Z,101839.80
2018-12-12T20:04:48.567Z,101849.88
2018-12-12T20:07:14.556Z,101847.72
2018-12-12T20:09:40.544Z,101853.13
2018-12-12T20:12:06.523Z,101848.09
2018-12-12T20:14:32.530Z,101851.08
2018-12-12T20:16:58.614Z,101853.97
2018-12-12T20:19:24.671Z,101852.64
2018-12-12T20:21:50.659Z,101852.16
2018-12-12T20:24:16.609Z,101853.97
2018-12-12T20:26:42.578Z,101853.59
2018-12-12T20:29:08.565Z,101849.77
2018-12-12T20:31:34.624Z,101849.28
2018-12-12T20:34:00.571Z,101849.52
2018-12-12T20:36:26.546Z,101850.84
2018-12-12T20:38:52.513Z,101853.97
2018-12-12T20:41:18.482Z,101855.73
2018-12-12T20:43:44.436Z,101846.50
2018-12-12T20:46:10.467Z,101848.30
2018-12-12T20:48:36.464Z,101853.69
2018-12-12T20:51:02.435Z,101847.82
2018-12-12T20:53:28.513Z,101845.77
2018-12-12T20:55:54.466Z,101843.52
2018-12-12T20:58:20.424Z,101845.77
2018-12-12T21:00:46.378Z,101851.44
2018-12-12T21:03:12.376Z,101849.39
2018-12-12T21:05:38.354Z,101850.45
2018-12-12T21:08:04.322Z,101843.37
2018-12-12T21:10:30.300Z,101849.49
2018-12-12T21:12:56.280Z,101853.58
2018-12-12T21:15:22.292Z,101848.06
2018-12-12T21:17:48.247Z,101847.92
2018-12-12T21:20:14.269Z,101847.09
2018-12-12T21:22:40.280Z,101843.86
2018-12-12T21:25:06.274Z,101845.91
2018-12-12T21:27:32.245Z,101848.17
2018-12-12T21:29:58.286Z,101844.21
2018-12-12T21:32:24.253Z,101837.86
2018-12-12T21:34:50.200Z,101835.36
2018-12-12T21:37:16.441Z,101834.63
2018-12-12T21:39:42.832Z,101827.66
2018-12-12T21:42:08.907Z,101830.08
2018-12-12T21:44:34.869Z,101827.55
2018-12-12T21:47:01.009Z,101823.48
2018-12-12T21:49:27.054Z,101822.03
2018-12-12T21:51:53.177Z,101829.84
2018-12-12T21:54:19.142Z,101821.44
2018-12-12T21:56:45.121Z,101827.92
2018-12-12T21:59:11.182Z,101816.89
2018-12-12T22:01:37.390Z,101818.80
2018-12-12T22:04:03.413Z,101815.08
2018-12-12T22:06:29.386Z,101807.65
2018-12-12T22:08:55.361Z,101809.45
2018-12-12T22:11:21.306Z,101803.20
2018-12-12T22:13:47.274Z,101799.73
2018-12-12T22:16:13.280Z,101796.27
2018-12-12T22:18:39.234Z,101796.37
2018-12-12T22:21:05.311Z,101794.59
2018-12-12T22:23:31.407Z,101794.94
2018-12-12T22:25:57.448Z,101797.69
2018-12-12T22:28:23.412Z,101787.72
2018-12-12T22:30:49.389Z,101782.94
2018-12-12T22:33:15.310Z,101780.78
2018-12-12T22:35:41.336Z,101776.82
2018-12-12T22:38:07.303Z,101773.21
2018-12-12T22:40:33.265Z,101775.39
2018-12-12T22:42:59.235Z,101769.39
2018-12-12T22:45:25.288Z,101771.55
2018-12-12T22:47:51.268Z,101770.23
2018-12-12T22:50:17.233Z,101781.99
2018-12-12T22:52:43.247Z,101780.67
2018-12-12T22:55:09.923Z,101765.78
2018-12-12T22:57:35.887Z,101763.05
2018-12-12T23:00:01.847Z,101765.30
2018-12-12T23:02:27.819Z,101762.31
2018-12-12T23:04:53.772Z,101765.06
2018-12-12T23:07:19.863Z,101766.25
2018-12-12T23:09:45.814Z,101771.52
2018-12-12T23:12:11.772Z,101770.83
2018-12-12T23:14:37.821Z,101769.27
2018-12-12T23:17:03.802Z,101767.95
2018-12-12T23:19:29.765Z,101762.27
2018-12-12T23:21:55.827Z,101761.91
2018-12-12T23:24:25.106Z,101755.42
2018-12-12T23:26:49.756Z,101755.80
2018-12-12T23:29:15.706Z,101753.76
2018-12-12T23:31:41.775Z,101751.95
2018-12-12T23:34:07.817Z,101744.15
2018-12-12T23:36:33.825Z,101745.84
2018-12-12T23:38:59.845Z,101744.15
2018-12-12T23:41:25.816Z,101738.53
2018-12-12T23:43:51.773Z,101739.95
2018-12-12T23:46:17.836Z,101733.01
2018-12-12T23:48:43.835Z,101728.56
2018-12-12T23:51:09.909Z,101729.99
2018-12-12T23:53:35.889Z,101724.86
2018-12-12T23:56:01.833Z,101722.95
2018-12-12T23:58:27.886Z,101723.05
